MET'MAP v2.0
soon released !

Expected late october,
this new version will be
more efficient, smarter,
and hosted on a brand new
server x3 powerfull...
...and still free !


Not compatible ?
Try the mobile version !

LOG IN : | Subscribe | Disclaimer | Who is Orbifly ? |
ICAO code :

TAF - EGTE Exeter - 12 Dec 2019 19:44 UTC
Data Sources :     NOAA   


- Airport Elevation : 102 ft
- IATA code : EXT
- No reported NOTAMs.


EGTE - Exeter

Latest METAR recorded : 2015/08/11 07:50 EGTE 110750Z VRB02KT 9999 FEW008 12/12 Q1020
TAF TAF EGTE
Valid from the 12 at 18:00 until the 13 at 03:00 UTC


121656Z 1218/1303 26012KT 9999 SCT025
TEMPO 1218/1303 7000 SHRA BKN012
TEMPO 1218/1221 27015G25KT
PROB30
TEMPO 1218/1303 4000 +SHRA SHGS BKN009
BECMG 1221/1224 29020G35KT

Source NOAA


MET'MAP, your aeronautical weather chart ! - Copyright ORBIFLY December 2007

Programming & Development : Alexandra Zaïnal
Co-Developer : Marc-Olivier Méhu
Technical & hardware support : Manuel Goepfert
Concept & Financing : Baudouin d'Aumeries